Time;durP1;ratioP1;P1;durP2;ratioP2;P2;SDS_P1;SDS_P2;PMS_P1;PMS_P2;Temp;Humidity;BMP_temperature;BMP_pressure;BME280_temperature;BME280_humidity;BME280_pressure;Samples;Min_cycle;Max_cycle;Signal;HPM_P1;HPM_P2
2023/03/10 00:00:11;;;;;;;18.30;6.40;;;;;;;9.10;100.00;99495.75;105703;1300;58314;-90
2023/03/10 00:02:37;;;;;;;17.40;7.00;;;;;;;9.07;100.00;99499.57;105706;1297;72466;-89
2023/03/10 00:05:04;;;;;;;18.90;7.10;;;;;;;9.06;100.00;99499.95;105747;1296;58260;-91
2023/03/10 00:07:29;;;;;;;20.30;6.30;;;;;;;9.06;100.00;99495.39;105883;1293;58668;-89
2023/03/10 00:09:55;;;;;;;18.90;7.30;;;;;;;9.07;100.00;99496.56;105937;1295;58770;-90
2023/03/10 00:12:21;;;;;;;20.30;7.80;;;;;;;9.09;100.00;99495.00;106220;1291;58354;-90
2023/03/10 00:14:48;;;;;;;23.70;7.60;;;;;;;9.09;100.00;99488.50;106236;1291;58194;-90
2023/03/10 00:17:13;;;;;;;22.50;7.30;;;;;;;9.11;100.00;99479.77;106280;1290;58297;-91
2023/03/10 00:19:39;;;;;;;24.80;8.30;;;;;;;9.12;100.00;99477.89;106298;1291;58751;-90
2023/03/10 00:22:05;;;;;;;20.30;7.50;;;;;;;9.12;100.00;99473.69;106350;1291;58420;-90
2023/03/10 00:24:30;;;;;;;22.60;8.40;;;;;;;9.13;100.00;99473.33;106242;1291;73589;-89
2023/03/10 00:26:56;;;;;;;21.40;8.10;;;;;;;9.13;100.00;99478.31;106300;1291;58269;-91
2023/03/10 00:29:22;;;;;;;35.10;8.80;;;;;;;9.13;100.00;99474.19;106266;1291;58336;-92
2023/03/10 00:31:47;;;;;;;26.30;8.00;;;;;;;9.12;100.00;99476.76;106297;1291;58531;-90
2023/03/10 00:34:13;;;;;;;22.30;7.90;;;;;;;9.13;100.00;99471.55;106291;1291;58207;-92
2023/03/10 00:36:39;;;;;;;21.20;8.00;;;;;;;9.10;100.00;99474.73;106223;1290;61833;-89
2023/03/10 00:39:08;;;;;;;21.90;8.80;;;;;;;9.08;100.00;99472.69;106154;1292;58336;-90
2023/03/10 00:41:38;;;;;;;29.00;9.00;;;;;;;9.07;100.00;99468.84;106199;1291;73431;-91
2023/03/10 00:44:05;;;;;;;29.90;9.80;;;;;;;9.05;100.00;99469.39;106132;1291;74351;-91
2023/03/10 00:46:35;;;;;;;23.10;8.70;;;;;;;9.01;100.00;99468.27;106131;1291;73854;-91
2023/03/10 00:49:00;;;;;;;25.90;9.40;;;;;;;8.99;100.00;99471.67;106169;1291;61117;-90
2023/03/10 00:51:26;;;;;;;25.30;9.70;;;;;;;8.99;100.00;99469.79;106247;1291;58259;-91
2023/03/10 00:53:52;;;;;;;31.30;10.50;;;;;;;8.98;100.00;99466.95;106179;1291;58524;-91
2023/03/10 00:56:20;;;;;;;24.70;10.70;;;;;;;8.98;100.00;99467.33;106151;1292;58523;-90
2023/03/10 00:58:49;;;;;;;19.70;9.20;;;;;;;8.97;100.00;99473.08;105981;1291;58375;-90
2023/03/10 01:01:19;;;;;;;24.60;11.10;;;;;;;8.99;100.00;99474.68;106178;1291;61447;-90
2023/03/10 01:03:45;;;;;;;33.50;10.90;;;;;;;8.98;100.00;99479.09;106125;1291;60282;-90
2023/03/10 01:06:12;;;;;;;27.50;10.20;;;;;;;9.02;100.00;99485.14;106144;1291;58213;-90
2023/03/10 01:08:38;;;;;;;27.80;9.90;;;;;;;9.03;100.00;99482.34;106144;1292;73634;-90
2023/03/10 01:11:03;;;;;;;30.60;10.60;;;;;;;9.04;100.00;99484.70;106287;1290;58447;-90
2023/03/10 01:13:29;;;;;;;28.50;10.40;;;;;;;9.05;100.00;99486.48;106274;1291;58321;-89
2023/03/10 01:15:55;;;;;;;28.90;10.70;;;;;;;9.06;100.00;99491.41;106201;1290;58307;-89
2023/03/10 01:18:21;;;;;;;33.50;10.70;;;;;;;9.05;100.00;99498.79;106260;1290;58292;-90
2023/03/10 01:20:47;;;;;;;32.20;11.30;;;;;;;9.05;100.00;99499.48;106203;1291;58392;-89
2023/03/10 01:23:18;;;;;;;31.80;11.50;;;;;;;9.05;100.00;99498.73;106277;1291;58230;-91
2023/03/10 01:25:44;;;;;;;31.50;11.40;;;;;;;9.08;100.00;99500.42;106283;1291;61184;-90
2023/03/10 01:28:11;;;;;;;30.10;11.80;;;;;;;9.09;100.00;99502.89;106277;1291;58472;-89
2023/03/10 01:30:38;;;;;;;32.20;11.80;;;;;;;9.08;100.00;99506.56;106182;1291;58492;-89
2023/03/10 01:33:04;;;;;;;31.90;12.00;;;;;;;9.05;100.00;99512.33;106019;1293;73781;-90
2023/03/10 01:35:30;;;;;;;33.60;11.40;;;;;;;9.01;100.00;99520.40;105903;1292;58313;-88
2023/03/10 01:37:56;;;;;;;35.20;11.90;;;;;;;8.99;100.00;99520.84;105984;1293;58539;-89
2023/03/10 01:40:22;;;;;;;36.80;12.30;;;;;;;8.97;100.00;99526.49;106083;1292;58558;-89
2023/03/10 01:42:47;;;;;;;28.60;13.30;;;;;;;8.93;100.00;99523.50;106111;1293;58449;-90
2023/03/10 01:45:13;;;;;;;34.20;12.80;;;;;;;8.90;100.00;99523.35;105856;1296;58336;-90
2023/03/10 01:47:38;;;;;;;30.70;11.20;;;;;;;8.87;100.00;99528.42;106103;1292;59996;-89
2023/03/10 01:50:07;;;;;;;34.40;11.10;;;;;;;8.81;100.00;99527.37;106050;1293;58400;-89
2023/03/10 01:52:34;;;;;;;33.40;11.40;;;;;;;8.76;100.00;99529.75;105883;1293;74023;-90
2023/03/10 01:55:14;;;;;;;33.10;12.20;;;;;;;8.71;100.00;99529.71;106020;1292;73593;-89
2023/03/10 01:57:45;;;;;;;34.30;12.50;;;;;;;8.64;100.00;99526.40;105769;1293;59945;-90
2023/03/10 02:00:11;;;;;;;31.80;13.20;;;;;;;8.57;100.00;99524.74;106121;1292;59510;-90
2023/03/10 02:02:47;;;;;;;36.00;13.10;;;;;;;8.52;100.00;99529.44;106101;1292;58827;-89
2023/03/10 02:05:13;;;;;;;34.30;13.00;;;;;;;8.49;100.00;99528.86;106231;1291;74583;-90
2023/03/10 02:07:42;;;;;;;38.60;14.20;;;;;;;8.46;100.00;99528.00;106252;1291;73480;-88
2023/03/10 02:10:10;;;;;;;48.50;14.10;;;;;;;8.42;100.00;99528.81;106288;1291;60412;-88
2023/03/10 02:12:35;;;;;;;37.10;14.30;;;;;;;8.38;100.00;99531.48;106301;1291;59633;-89
2023/03/10 02:15:01;;;;;;;40.10;14.80;;;;;;;8.34;100.00;99534.33;106138;1292;58366;-88
2023/03/10 02:17:27;;;;;;;41.90;15.50;;;;;;;8.30;100.00;99527.14;106131;1292;59235;-88
2023/03/10 02:20:19;;;;;;;46.70;16.50;;;;;;;8.28;100.00;99526.98;106005;1293;58561;-89
2023/03/10 02:22:44;;;;;;;44.60;14.40;;;;;;;8.26;100.00;99525.59;106133;1292;61974;-88
2023/03/10 02:25:25;;;;;;;38.20;14.40;;;;;;;8.25;100.00;99523.66;106165;1292;58683;-89
2023/03/10 02:27:51;;;;;;;40.90;14.00;;;;;;;8.22;100.00;99523.61;106047;1293;74476;-88
2023/03/10 02:30:23;;;;;;;41.40;15.30;;;;;;;8.19;100.00;99522.21;105820;1292;58341;-88
2023/03/10 02:32:54;;;;;;;40.10;15.00;;;;;;;8.17;100.00;99524.91;105853;1292;72521;-89
2023/03/10 02:35:19;;;;;;;45.00;14.60;;;;;;;8.15;100.00;99523.23;106118;1292;60886;-89
2023/03/10 02:37:45;;;;;;;37.50;14.90;;;;;;;8.12;100.00;99521.52;106113;1292;58365;-88
2023/03/10 02:40:32;;;;;;;52.70;15.10;;;;;;;8.10;100.00;99520.29;106157;1292;58370;-89
2023/03/10 02:43:11;;;;;;;40.60;15.00;;;;;;;8.07;100.00;99523.52;106144;1292;73570;-89
2023/03/10 02:45:41;;;;;;;45.70;15.30;;;;;;;8.03;100.00;99530.12;106042;1292;72673;-89
2023/03/10 02:48:13;;;;;;;46.70;16.10;;;;;;;7.98;100.00;99535.06;106043;1293;61833;-88
2023/03/10 02:50:42;;;;;;;41.30;15.10;;;;;;;7.93;100.00;99534.84;106121;1292;59916;-88
2023/03/10 02:53:15;;;;;;;39.70;15.60;;;;;;;7.88;100.00;99539.99;106169;1291;74926;-88
2023/03/10 02:55:41;;;;;;;47.60;16.20;;;;;;;7.85;100.00;99539.56;106289;1291;73503;-91
2023/03/10 03:00:51;;;;;;;40.80;16.40;;;;;;;7.70;100.00;99550.48;106256;1290;60071;-89
2023/03/10 03:03:19;;;;;;;51.20;15.50;;;;;;;7.64;100.00;99555.09;106244;1290;58384;-88
2023/03/10 03:05:46;;;;;;;39.70;15.10;;;;;;;7.60;100.00;99554.13;106165;1290;74598;-89
2023/03/10 03:08:13;;;;;;;41.90;15.30;;;;;;;7.56;100.00;99554.01;106154;1290;72880;-89
2023/03/10 03:10:38;;;;;;;44.30;15.60;;;;;;;7.51;100.00;99550.56;106245;1290;73739;-89
2023/03/10 03:13:05;;;;;;;40.00;15.20;;;;;;;7.47;100.00;99551.91;106220;1290;58301;-89
2023/03/10 03:15:31;;;;;;;44.20;15.90;;;;;;;7.42;100.00;99544.11;106206;1290;58585;-88
2023/03/10 03:17:59;;;;;;;51.40;16.30;;;;;;;7.39;100.00;99546.67;106286;1291;58318;-90
2023/03/10 03:20:27;;;;;;;36.50;14.70;;;;;;;7.34;100.00;99545.27;106252;1290;72443;-89
2023/03/10 03:22:53;;;;;;;42.50;16.10;;;;;;;7.29;100.00;99543.65;106170;1290;72549;-91
2023/03/10 03:25:21;;;;;;;44.30;15.40;;;;;;;7.25;100.00;99547.67;106306;1291;58325;-89
2023/03/10 03:27:47;;;;;;;41.00;15.50;;;;;;;7.21;100.00;99551.35;106243;1291;60072;-89
2023/03/10 03:30:16;;;;;;;41.40;16.40;;;;;;;7.16;100.00;99551.33;106151;1290;58263;-90
2023/03/10 03:32:42;;;;;;;46.40;17.20;;;;;;;7.12;100.00;99556.52;106277;1291;74318;-90
2023/03/10 03:35:11;;;;;;;40.20;15.60;;;;;;;7.07;100.00;99560.08;106311;1291;58237;-88
2023/03/10 03:37:39;;;;;;;42.50;16.30;;;;;;;7.04;100.00;99563.77;106183;1291;60826;-88
2023/03/10 03:40:11;;;;;;;45.30;17.00;;;;;;;7.01;100.00;99557.48;106260;1290;60139;-89
2023/03/10 03:42:49;;;;;;;51.60;18.30;;;;;;;6.98;100.00;99559.83;106347;1290;74571;-87
2023/03/10 03:45:17;;;;;;;41.20;17.20;;;;;;;6.96;100.00;99554.04;106137;1291;73154;-90
2023/03/10 03:47:43;;;;;;;59.40;18.40;;;;;;;6.93;100.00;99545.79;105984;1291;73434;-90
2023/03/10 03:50:11;;;;;;;48.20;17.30;;;;;;;6.90;100.00;99543.56;105952;1295;58279;-89
2023/03/10 03:52:38;;;;;;;59.00;20.30;;;;;;;6.88;100.00;99549.88;106185;1291;60866;-89
2023/03/10 03:55:04;;;;;;;56.00;20.20;;;;;;;6.88;100.00;99547.89;106209;1291;58314;-88
2023/03/10 03:57:30;;;;;;;53.60;19.60;;;;;;;6.87;100.00;99555.35;106146;1292;58716;-87
2023/03/10 03:59:55;;;;;;;55.40;21.60;;;;;;;6.86;100.00;99571.45;106026;1291;58473;-89
2023/03/10 04:02:21;;;;;;;52.20;20.40;;;;;;;6.85;100.00;99582.54;106161;1291;58301;-89
2023/03/10 04:04:47;;;;;;;54.50;21.10;;;;;;;6.84;100.00;99584.56;106143;1291;58377;-89
2023/03/10 04:07:13;;;;;;;56.80;21.80;;;;;;;6.86;100.00;99580.89;106180;1292;59063;-91
2023/03/10 04:09:40;;;;;;;54.20;21.60;;;;;;;6.88;100.00;99582.48;106224;1291;72499;-88
2023/03/10 04:12:08;;;;;;;63.80;22.20;;;;;;;6.90;100.00;99580.95;106127;1291;62155;-89
2023/03/10 04:14:34;;;;;;;53.70;20.80;;;;;;;6.91;100.00;99581.00;106216;1291;60091;-89
2023/03/10 04:17:00;;;;;;;60.90;21.20;;;;;;;6.92;100.00;99583.81;106210;1290;58266;-89
2023/03/10 04:19:26;;;;;;;56.40;23.30;;;;;;;6.92;100.00;99587.39;106287;1289;58260;-88
2023/03/10 04:21:52;;;;;;;57.90;20.70;;;;;;;6.93;100.00;99585.89;106153;1290;58652;-89
2023/03/10 04:24:17;;;;;;;54.30;20.70;;;;;;;6.94;100.00;99585.21;106210;1290;58251;-88
2023/03/10 04:26:43;;;;;;;58.10;20.30;;;;;;;6.94;100.00;99593.78;106341;1289;58263;-88
2023/03/10 04:29:09;;;;;;;51.00;20.10;;;;;;;6.96;100.00;99594.69;106284;1290;58424;-87
2023/03/10 04:31:35;;;;;;;56.70;20.10;;;;;;;6.99;100.00;99592.61;106270;1290;72297;-88
2023/03/10 04:34:01;;;;;;;53.10;18.90;;;;;;;7.02;100.00;99598.20;106251;1291;58250;-88
2023/03/10 04:36:26;;;;;;;53.80;20.40;;;;;;;7.09;100.00;99608.30;106264;1289;58249;-88
2023/03/10 04:38:52;;;;;;;60.00;20.60;;;;;;;7.16;100.00;99609.15;106223;1289;58600;-89
2023/03/10 04:41:18;;;;;;;59.80;20.80;;;;;;;7.24;100.00;99610.23;106292;1291;58262;-88
2023/03/10 04:43:43;;;;;;;54.00;20.00;;;;;;;7.35;100.00;99610.55;106316;1291;58267;-89
2023/03/10 04:46:09;;;;;;;53.30;20.50;;;;;;;7.46;100.00;99611.83;106277;1289;60615;-88
2023/03/10 04:48:34;;;;;;;62.20;21.00;;;;;;;7.56;100.00;99616.85;106220;1290;58694;-88
2023/03/10 04:51:05;;;;;;;52.90;20.10;;;;;;;7.64;100.00;99616.60;106307;1289;58327;-89
2023/03/10 04:53:33;;;;;;;47.50;19.70;;;;;;;7.73;100.00;99625.84;106295;1289;72594;-87
2023/03/10 04:56:00;;;;;;;51.80;17.90;;;;;;;7.82;100.00;99626.94;106132;1290;61070;-88
2023/03/10 04:58:26;;;;;;;49.00;18.90;;;;;;;7.92;100.00;99627.33;106245;1290;61035;-88
2023/03/10 05:00:51;;;;;;;51.90;17.60;;;;;;;8.03;100.00;99631.11;106283;1291;58510;-89
2023/03/10 05:03:17;;;;;;;44.40;19.30;;;;;;;8.14;100.00;99627.15;106320;1290;58253;-88
2023/03/10 05:05:42;;;;;;;45.10;18.00;;;;;;;8.24;100.00;99623.23;106232;1290;58797;-89
2023/03/10 05:08:08;;;;;;;43.00;16.70;;;;;;;8.38;100.00;99619.54;106347;1289;58192;-87
2023/03/10 05:10:34;;;;;;;49.70;17.80;;;;;;;8.51;100.00;99618.85;106337;1290;73518;-87
2023/03/10 05:13:00;;;;;;;44.80;17.10;;;;;;;8.62;100.00;99620.08;106217;1290;58718;-86
2023/03/10 05:15:26;;;;;;;47.90;16.80;;;;;;;8.75;100.00;99627.95;106293;1289;58568;-88
2023/03/10 05:17:51;;;;;;;47.20;16.70;;;;;;;8.85;100.00;99631.48;106261;1289;58396;-87
2023/03/10 05:20:18;;;;;;;46.10;17.20;;;;;;;8.95;100.00;99633.50;106158;1291;58281;-87
2023/03/10 05:22:43;;;;;;;45.30;16.40;;;;;;;9.06;100.00;99636.21;106259;1291;58270;-87
2023/03/10 05:25:11;;;;;;;49.40;18.00;;;;;;;9.16;100.00;99635.05;106268;1291;58446;-88
2023/03/10 05:27:37;;;;;;;49.00;17.60;;;;;;;9.25;100.00;99637.76;106233;1291;62066;-87
2023/03/10 05:30:05;;;;;;;58.20;17.60;;;;;;;9.34;100.00;99637.20;106311;1290;58263;-88
2023/03/10 05:32:35;;;;;;;52.50;17.30;;;;;;;9.47;100.00;99643.10;106186;1290;74941;-87
2023/03/10 05:35:02;;;;;;;46.80;16.70;;;;;;;9.60;100.00;99648.05;106285;1291;73485;-87
2023/03/10 05:37:28;;;;;;;45.20;16.10;;;;;;;9.63;100.00;99651.48;106192;1290;71277;-87
2023/03/10 05:39:53;;;;;;;55.90;16.00;;;;;;;9.65;100.00;99659.65;106289;1291;58612;-88
2023/03/10 05:42:19;;;;;;;53.10;16.60;;;;;;;9.69;100.00;99668.36;106284;1290;58378;-87
2023/03/10 05:44:45;;;;;;;51.40;15.70;;;;;;;9.71;100.00;99676.40;106253;1290;58292;-87
2023/03/10 05:47:12;;;;;;;46.20;14.10;;;;;;;9.74;100.00;99682.58;106313;1290;58391;-88
2023/03/10 05:49:37;;;;;;;46.60;13.80;;;;;;;9.82;100.00;99688.46;106223;1291;58586;-88
2023/03/10 05:52:03;;;;;;;50.80;13.50;;;;;;;9.91;100.00;99690.57;106263;1289;58505;-88
2023/03/10 05:54:29;;;;;;;43.20;13.30;;;;;;;10.13;100.00;99690.38;106294;1290;74576;-87
2023/03/10 05:56:54;;;;;;;44.80;13.30;;;;;;;10.40;100.00;99689.04;106275;1290;58262;-87
2023/03/10 05:59:20;;;;;;;41.80;12.10;;;;;;;10.59;100.00;99686.63;106269;1290;58694;-87
2023/03/10 06:01:46;;;;;;;31.30;10.60;;;;;;;11.52;100.00;99678.54;106291;1291;58544;-88
2023/03/10 06:04:11;;;;;;;37.70;11.80;;;;;;;13.50;100.00;99671.92;106277;1291;58323;-88
2023/03/10 06:06:37;;;;;;;28.90;9.40;;;;;;;15.39;100.00;99673.14;106198;1291;74699;-88
2023/03/10 06:09:03;;;;;;;25.20;9.50;;;;;;;17.04;100.00;99676.00;106318;1290;58276;-88
2023/03/10 06:11:29;;;;;;;28.60;9.10;;;;;;;18.61;100.00;99680.75;106148;1289;58326;-88
2023/03/10 06:13:54;;;;;;;23.80;8.00;;;;;;;18.93;100.00;99685.55;106253;1290;58379;-87
2023/03/10 06:16:20;;;;;;;26.60;8.60;;;;;;;18.25;95.17;99692.95;106010;1291;58339;-88
2023/03/10 06:18:46;;;;;;;25.00;8.70;;;;;;;17.50;91.11;99698.38;106251;1291;58813;-88
2023/03/10 06:21:13;;;;;;;25.60;8.90;;;;;;;16.93;96.22;99705.33;106266;1291;60025;-87
2023/03/10 06:23:39;;;;;;;24.30;9.10;;;;;;;16.99;95.53;99709.20;106244;1290;60056;-88
2023/03/10 06:26:12;;;;;;;25.40;9.30;;;;;;;18.30;98.11;99707.02;106297;1291;58275;-89
2023/03/10 06:28:38;;;;;;;;;;;;;;;20.10;86.35;99711.52;106307;1290;74420;-88
2023/03/10 06:31:08;;;;;;;20.10;8.50;;;;;;;21.52;71.62;99709.15;106295;1291;58455;-89
2023/03/10 06:33:34;;;;;;;24.60;9.10;;;;;;;22.50;66.10;99705.68;106265;1290;60288;-89
2023/03/10 06:36:00;;;;;;;31.90;9.70;;;;;;;23.58;58.63;99709.11;106228;1290;58450;-88
2023/03/10 06:38:26;;;;;;;22.70;9.50;;;;;;;24.22;56.05;99712.02;106297;1290;58587;-90
2023/03/10 06:40:52;;;;;;;22.80;10.20;;;;;;;25.09;48.39;99709.24;106374;1291;58255;-87
2023/03/10 06:43:17;;;;;;;24.10;9.80;;;;;;;25.84;45.61;99711.45;106316;1289;58407;-86
2023/03/10 06:45:45;;;;;;;23.50;10.10;;;;;;;26.44;44.08;99717.53;106113;1291;58315;-87
2023/03/10 06:48:11;;;;;;;21.60;10.40;;;;;;;27.25;43.83;99715.23;106106;1291;58300;-86
2023/03/10 06:50:46;;;;;;;24.10;10.20;;;;;;;27.74;40.09;99717.90;105977;1291;58183;-87
2023/03/10 06:53:13;;;;;;;22.30;9.90;;;;;;;27.62;38.43;99723.61;106175;1291;73317;-87
2023/03/10 06:55:39;;;;;;;24.70;11.30;;;;;;;27.94;38.42;99725.09;106216;1291;73645;-91
2023/03/10 06:58:08;;;;;;;21.80;10.30;;;;;;;28.43;37.98;99729.39;105989;1291;58656;-85
2023/03/10 07:00:33;;;;;;;25.60;11.00;;;;;;;28.64;35.54;99730.10;106175;1292;62744;-86
2023/03/10 07:03:02;;;;;;;19.80;10.50;;;;;;;29.07;35.94;99727.40;106287;1291;58359;-86
2023/03/10 07:05:28;;;;;;;20.00;10.60;;;;;;;29.82;36.94;99724.18;106197;1291;74467;-87
2023/03/10 07:07:54;;;;;;;25.40;10.70;;;;;;;30.56;34.57;99720.90;106219;1291;58410;-87
2023/03/10 07:10:22;;;;;;;20.60;10.10;;;;;;;30.99;32.68;99728.11;106228;1291;58314;-86
2023/03/10 07:12:53;;;;;;;18.90;9.80;;;;;;;31.14;33.15;99731.00;105958;1291;60120;-86
2023/03/10 07:15:21;;;;;;;23.30;9.20;;;;;;;31.60;32.12;99734.41;106246;1291;73762;-86
2023/03/10 07:17:49;;;;;;;16.80;9.30;;;;;;;31.96;30.92;99729.71;106319;1290;73459;-85
2023/03/10 07:20:34;;;;;;;19.70;8.90;;;;;;;32.10;30.30;99731.43;106299;1291;73703;-86
2023/03/10 07:23:00;;;;;;;17.50;8.80;;;;;;;32.11;29.86;99736.05;106229;1291;61209;-85
2023/03/10 07:25:26;;;;;;;17.80;8.20;;;;;;;32.33;29.47;99733.53;106227;1291;58299;-86
2023/03/10 07:27:55;;;;;;;17.50;9.30;;;;;;;32.49;28.34;99732.92;106315;1290;58184;-86
2023/03/10 07:30:20;;;;;;;15.10;8.90;;;;;;;32.47;28.54;99735.34;106328;1290;74205;-85
2023/03/10 07:32:46;;;;;;;17.10;8.70;;;;;;;32.59;28.55;99741.96;106281;1291;58283;-86
2023/03/10 07:35:12;;;;;;;16.10;7.90;;;;;;;32.82;28.52;99739.29;106263;1290;58577;-86
2023/03/10 07:37:41;;;;;;;18.00;8.40;;;;;;;33.31;28.34;99740.66;106328;1290;58279;-85
2023/03/10 07:40:09;;;;;;;19.10;9.30;;;;;;;33.09;26.94;99740.86;106324;1290;58205;-86
2023/03/10 07:42:34;;;;;;;17.70;8.40;;;;;;;32.86;27.69;99744.87;106370;1290;74408;-86
2023/03/10 07:45:06;;;;;;;19.10;8.10;;;;;;;32.87;27.69;99747.89;106178;1291;58381;-86
2023/03/10 07:47:32;;;;;;;15.70;8.10;;;;;;;32.98;28.17;99751.23;105502;1296;387922;-87
2023/03/10 07:49:57;;;;;;;12.30;7.60;;;;;;;33.26;26.87;99758.97;105834;1295;58447;-87
2023/03/10 07:52:23;;;;;;;13.30;7.40;;;;;;;32.79;27.17;99761.80;105832;1296;58441;-87
2023/03/10 07:54:49;;;;;;;12.60;7.40;;;;;;;32.00;27.58;99765.71;105808;1295;58487;-87
2023/03/10 07:57:15;;;;;;;13.60;6.60;;;;;;;32.07;27.91;99765.36;105861;1296;58434;-87
2023/03/10 07:59:41;;;;;;;12.50;6.60;;;;;;;31.83;27.87;99766.41;105850;1295;60244;-88
2023/03/10 08:02:11;;;;;;;8.80;6.00;;;;;;;31.04;28.62;99773.05;105853;1296;58361;-87
2023/03/10 08:04:37;;;;;;;10.00;5.60;;;;;;;29.95;28.17;99776.40;105836;1296;73847;-87
2023/03/10 08:07:03;;;;;;;12.30;6.40;;;;;;;28.25;29.95;99787.92;105808;1295;58624;-87
2023/03/10 08:09:29;;;;;;;9.40;5.60;;;;;;;27.44;30.89;99791.62;105829;1296;58265;-86
2023/03/10 08:11:57;;;;;;;9.40;5.30;;;;;;;26.32;31.97;99791.16;105836;1295;58377;-86
2023/03/10 08:14:23;;;;;;;16.10;5.60;;;;;;;25.14;34.12;99797.77;105834;1296;59139;-91
2023/03/10 08:16:50;;;;;;;14.20;5.90;;;;;;;24.97;34.37;99806.40;105897;1294;58313;-88
2023/03/10 08:19:16;;;;;;;11.20;5.60;;;;;;;24.53;36.39;99811.90;105943;1293;58358;-88
2023/03/10 08:21:42;;;;;;;10.80;5.90;;;;;;;25.29;35.16;99813.31;105891;1294;58544;-90
2023/03/10 08:24:08;;;;;;;12.40;5.40;;;;;;;24.79;35.12;99825.16;105894;1294;58270;-89
2023/03/10 08:26:34;;;;;;;13.20;5.80;;;;;;;24.13;35.97;99823.75;106308;1291;58166;-89
2023/03/10 08:29:00;;;;;;;10.90;5.30;;;;;;;23.70;36.97;99825.64;106244;1291;58275;-88
2023/03/10 08:31:26;;;;;;;10.40;5.20;;;;;;;23.89;36.50;99828.49;106033;1290;58239;-89
2023/03/10 08:33:56;;;;;;;13.40;5.50;;;;;;;23.29;37.60;99832.06;106299;1290;58201;-88
2023/03/10 08:36:26;;;;;;;11.80;5.30;;;;;;;23.37;37.98;99842.89;106192;1291;59202;-89
2023/03/10 08:38:53;;;;;;;13.10;6.10;;;;;;;23.23;38.72;99843.73;106176;1292;72999;-89
2023/03/10 08:41:25;;;;;;;13.70;5.70;;;;;;;23.37;37.74;99847.30;106202;1291;74451;-89
2023/03/10 08:43:53;;;;;;;9.40;5.10;;;;;;;23.39;38.90;99846.40;105890;1292;73585;-89
2023/03/10 08:46:23;;;;;;;13.00;5.40;;;;;;;23.83;38.30;99841.30;106175;1292;60043;-89
2023/03/10 08:48:50;;;;;;;12.40;5.60;;;;;;;23.30;37.94;99850.77;105773;1296;60944;-89
2023/03/10 08:51:16;;;;;;;10.30;5.30;;;;;;;22.50;39.11;99854.52;105824;1296;58677;-90
2023/03/10 08:53:45;;;;;;;11.30;5.40;;;;;;;21.72;40.34;99851.54;105813;1296;59358;-89
2023/03/10 08:56:12;;;;;;;10.80;5.70;;;;;;;21.27;41.17;99858.55;105734;1297;74591;-89
2023/03/10 08:58:38;;;;;;;11.80;5.70;;;;;;;21.01;41.82;99869.09;105640;1297;60147;-88
2023/03/10 09:01:04;;;;;;;13.20;5.50;;;;;;;21.09;42.55;99873.09;105812;1296;58590;-89
2023/03/10 09:03:30;;;;;;;15.50;6.70;;;;;;;21.29;42.09;99876.17;105772;1296;58489;-89
2023/03/10 09:05:58;;;;;;;14.30;7.20;;;;;;;20.91;42.24;99882.20;105482;1297;58673;-89
2023/03/10 09:08:24;;;;;;;11.30;6.60;;;;;;;20.41;43.34;99883.65;105734;1294;71518;-89
2023/03/10 09:10:50;;;;;;;13.20;7.00;;;;;;;20.18;44.11;99883.77;105843;1294;58334;-88
2023/03/10 09:13:15;;;;;;;15.80;6.80;;;;;;;20.09;44.34;99886.45;106002;1293;58752;-89
2023/03/10 09:15:41;;;;;;;13.60;6.60;;;;;;;20.16;44.61;99885.98;105954;1293;58369;-89
2023/03/10 09:18:08;;;;;;;11.30;6.10;;;;;;;20.91;44.93;99890.40;105861;1294;58228;-89
2023/03/10 09:20:35;;;;;;;10.20;6.10;;;;;;;21.76;41.96;99885.33;106187;1290;58167;-89
2023/03/10 09:23:01;;;;;;;16.50;6.30;;;;;;;21.33;42.17;99894.42;106303;1290;58151;-88
2023/03/10 09:25:26;;;;;;;15.10;6.10;;;;;;;20.83;42.52;99904.72;106293;1291;58233;-88
2023/03/10 09:27:52;;;;;;;10.80;6.10;;;;;;;20.07;43.41;99905.98;106312;1290;58276;-89
2023/03/10 09:30:17;;;;;;;10.50;6.00;;;;;;;19.20;45.06;99909.43;106276;1290;72303;-89
2023/03/10 09:32:43;;;;;;;13.10;6.50;;;;;;;18.54;46.81;99914.09;106234;1290;58665;-89
2023/03/10 09:35:10;;;;;;;13.70;6.90;;;;;;;18.24;47.60;99918.27;106350;1289;58220;-89
2023/03/10 09:37:36;;;;;;;14.70;6.80;;;;;;;18.04;48.24;99920.51;106297;1290;58649;-88
2023/03/10 09:40:04;;;;;;;12.80;6.40;;;;;;;17.76;48.88;99925.30;106218;1290;58541;-88
2023/03/10 09:43:03;;;;;;;18.20;7.20;;;;;;;17.54;50.26;99922.77;106004;1292;58305;-88
2023/03/10 09:45:32;;;;;;;14.00;7.00;;;;;;;17.41;51.33;99926.27;106132;1293;60034;-88
2023/03/10 09:48:13;;;;;;;15.20;7.50;;;;;;;17.26;52.03;99928.64;106184;1292;60081;-89
2023/03/10 09:50:46;;;;;;;17.80;8.40;;;;;;;17.14;52.49;99930.02;106210;1292;73720;-88
2023/03/10 09:53:21;;;;;;;15.80;7.30;;;;;;;16.96;53.97;99929.94;106146;1292;73538;-88
2023/03/10 09:55:46;;;;;;;17.20;7.60;;;;;;;16.86;54.11;99933.80;106181;1293;73379;-88
2023/03/10 09:58:26;;;;;;;12.40;7.50;;;;;;;16.56;54.81;99937.04;106161;1293;58426;-88
2023/03/10 10:00:51;;;;;;;17.30;7.90;;;;;;;16.29;55.29;99930.61;106118;1293;60171;-88
2023/03/10 10:03:32;;;;;;;13.50;7.10;;;;;;;16.26;56.73;99929.23;106078;1292;58265;-88
2023/03/10 10:05:59;;;;;;;16.30;8.00;;;;;;;16.62;56.87;99929.63;106157;1292;75102;-88
2023/03/10 10:08:53;;;;;;;13.10;7.20;;;;;;;16.90;55.90;99929.97;105794;1296;73512;-88
2023/03/10 10:11:19;;;;;;;12.60;7.10;;;;;;;16.89;56.37;99923.38;105356;1302;59721;-88
2023/03/10 10:13:45;;;;;;;11.90;6.50;;;;;;;16.94;56.09;99924.23;105210;1300;58901;-88
2023/03/10 10:16:30;;;;;;;14.80;6.90;;;;;;;17.16;56.62;99924.05;105484;1300;58311;-88
2023/03/10 10:19:18;;;;;;;10.30;6.30;;;;;;;17.60;55.16;99915.55;105479;1302;74655;-88
2023/03/10 10:21:51;;;;;;;13.00;6.50;;;;;;;17.62;53.44;99920.39;105457;1301;73236;-88
2023/03/10 10:24:18;;;;;;;13.90;7.00;;;;;;;17.39;53.62;99924.22;105458;1302;61199;-87
2023/03/10 10:26:43;;;;;;;16.00;6.10;;;;;;;17.25;53.95;99927.33;105460;1302;60163;-89
2023/03/10 10:29:36;;;;;;;11.20;5.80;;;;;;;17.17;53.71;99929.31;105500;1300;58434;-88
2023/03/10 10:32:13;;;;;;;10.60;5.70;;;;;;;17.09;54.39;99925.95;105080;1305;73401;-89
2023/03/10 10:34:41;;;;;;;10.00;5.50;;;;;;;17.01;54.16;99927.03;105095;1305;73335;-88
2023/03/10 10:37:31;;;;;;;9.30;5.00;;;;;;;16.85;53.00;99928.09;104755;1305;60043;-90
2023/03/10 10:39:59;;;;;;;10.10;5.40;;;;;;;16.57;54.07;99930.31;104547;1308;60074;-89
2023/03/10 10:42:28;;;;;;;9.30;4.20;;;;;;;16.66;54.30;99931.69;104752;1308;74203;-89
2023/03/10 10:44:58;;;;;;;12.60;6.70;;;;;;;16.66;53.94;99929.02;104735;1309;73415;-89
2023/03/10 10:47:25;;;;;;;6.90;4.20;;;;;;;16.54;54.16;99932.36;104766;1306;72630;-89
2023/03/10 10:49:51;;;;;;;7.90;4.30;;;;;;;16.59;54.88;99940.63;105286;1304;58400;-89
2023/03/10 10:52:24;;;;;;;7.30;4.40;;;;;;;16.69;54.11;99937.86;105188;1303;58612;-89
2023/03/10 10:54:53;;;;;;;;;;;;;;;16.76;53.83;99939.95;105338;1304;73842;-89
2023/03/10 10:57:37;;;;;;;9.60;5.40;;;;;;;16.79;53.89;99939.87;105294;1304;73550;-89
2023/03/10 11:00:24;;;;;;;6.90;4.00;;;;;;;16.78;53.31;99938.81;105096;1303;72776;-89
2023/03/10 11:02:50;;;;;;;6.80;4.30;;;;;;;16.70;53.27;99937.62;105307;1303;61330;-88
2023/03/10 11:05:22;;;;;;;9.40;4.80;;;;;;;16.50;53.72;99933.08;105351;1303;58674;-89
2023/03/10 11:07:49;;;;;;;9.20;5.10;;;;;;;16.43;54.10;99933.48;105305;1305;74683;-88
2023/03/10 11:10:18;;;;;;;9.10;4.80;;;;;;;16.33;54.01;99935.65;105540;1297;74359;-89
2023/03/10 11:12:55;;;;;;;9.50;5.20;;;;;;;16.18;54.75;99934.77;105737;1296;73516;-89
2023/03/10 11:15:34;;;;;;;7.90;4.60;;;;;;;16.18;55.52;99938.55;105715;1296;61033;-89
2023/03/10 11:18:13;;;;;;;11.00;5.50;;;;;;;16.26;55.04;99941.83;106012;1290;59867;-88
2023/03/10 11:20:57;;;;;;;10.70;5.70;;;;;;;16.08;55.62;99938.39;106208;1291;74461;-89